Time;durP1;ratioP1;P1;durP2;ratioP2;P2;SDS_P1;SDS_P2;PMS_P1;PMS_P2;Temp;Humidity;BMP_temperature;BMP_pressure;BME280_temperature;BME280_humidity;BME280_pressure;Samples;Min_cycle;Max_cycle;Signal;HPM_P1;HPM_P2
2022/12/29 00:02:19;;;;;;;10.15;5.12;;;;;;;5.11;74.98;98831.73;1751953;82;21592;-38
2022/12/29 00:04:45;;;;;;;11.03;5.60;;;;;;;5.13;74.82;98839.02;1752046;81;20983;-39
2022/12/29 00:07:11;;;;;;;9.60;5.10;;;;;;;5.14;74.66;98834.22;1752223;82;20979;-39
2022/12/29 00:09:37;;;;;;;10.85;4.70;;;;;;;5.11;74.63;98829.99;1752150;82;21031;-40
2022/12/29 00:12:04;;;;;;;8.20;4.80;;;;;;;5.14;74.83;98840.73;1752168;82;21524;-40
2022/12/29 00:17:15;;;;;;;9.75;5.17;;;;;;;5.09;74.36;98839.61;1752195;82;20971;-39
2022/12/29 00:36:28;;;;;;;7.83;4.92;;;;;;;5.10;74.26;98828.75;1752038;82;20983;-39
2022/12/29 00:44:32;;;;;;;11.20;4.90;;;;;;;5.04;74.57;98814.20;1752070;81;21010;-37
2022/12/29 00:47:02;;;;;;;10.28;5.00;;;;;;;5.04;74.34;98805.09;1752077;82;21094;-39
2022/12/29 00:49:32;;;;;;;7.80;4.78;;;;;;;5.08;74.59;98803.20;1751508;82;20981;-38
2022/12/29 00:52:02;;;;;;;10.40;4.90;;;;;;;5.09;74.50;98807.48;1752172;81;20952;-40
2022/12/29 00:54:31;;;;;;;8.08;5.03;;;;;;;5.08;74.49;98798.83;1751892;82;20979;-39
2022/12/29 00:56:57;;;;;;;8.40;5.35;;;;;;;5.06;74.44;98796.75;1751978;82;21488;-39
2022/12/29 00:59:23;;;;;;;11.43;5.10;;;;;;;5.03;74.21;98796.86;1752069;82;21491;-39
2022/12/29 01:01:52;;;;;;;9.18;4.58;;;;;;;5.09;74.55;98795.77;1752026;81;20976;-41
2022/12/29 01:04:18;;;;;;;10.55;5.33;;;;;;;5.08;74.20;98792.78;1752036;82;20991;-41
2022/12/29 01:06:44;;;;;;;7.80;4.60;;;;;;;5.10;74.22;98796.17;1751973;81;21497;-43
2022/12/29 01:11:55;;;;;;;9.65;4.90;;;;;;;5.04;74.11;98792.48;1754087;81;21437;-38
2022/12/29 01:14:22;;;;;;;8.93;5.03;;;;;;;5.09;74.10;98795.30;1753836;81;21422;-38
2022/12/29 01:16:48;;;;;;;7.67;4.35;;;;;;;5.09;73.99;98789.25;1753902;82;21561;-39
2022/12/29 01:19:15;;;;;;;9.85;4.83;;;;;;;5.12;74.12;98781.31;1753724;82;21485;-41
2022/12/29 01:21:41;;;;;;;7.00;4.92;;;;;;;5.14;74.03;98787.30;1753869;82;21372;-37
2022/12/29 01:24:07;;;;;;;8.35;4.67;;;;;;;5.13;73.86;98784.29;1753684;82;21257;-41
2022/12/29 01:26:33;;;;;;;8.83;4.40;;;;;;;5.16;73.90;98788.92;1753728;81;21002;-37
2022/12/29 01:28:59;;;;;;;7.15;3.98;;;;;;;5.13;73.93;98784.29;1753753;82;21027;-39
2022/12/29 01:31:25;;;;;;;7.12;4.33;;;;;;;5.11;73.69;98775.69;1753765;81;20952;-39
2022/12/29 01:33:51;;;;;;;8.53;4.53;;;;;;;5.11;73.72;98775.69;1753754;82;21572;-38
2022/12/29 01:36:18;;;;;;;8.28;4.50;;;;;;;5.03;73.80;98769.50;1753734;81;21003;-39
2022/12/29 01:38:45;;;;;;;6.28;4.00;;;;;;;5.04;73.93;98771.64;1753781;81;21026;-37
2022/12/29 01:41:14;;;;;;;8.37;4.10;;;;;;;5.05;74.46;98768.14;1753953;82;21004;-37
2022/12/29 01:43:56;;;;;;;6.72;3.92;;;;;;;5.05;74.46;98768.14;1753908;82;21034;-37
2022/12/29 01:46:41;;;;;;;8.98;4.25;;;;;;;5.07;74.26;98773.66;1753830;80;21046;-39
2022/12/29 01:49:24;;;;;;;8.53;3.92;;;;;;;5.12;73.98;98764.37;1753625;80;21039;-39
2022/12/29 01:51:54;;;;;;;8.73;3.98;;;;;;;5.11;73.80;98750.50;1753181;81;21006;-38
2022/12/29 01:54:28;;;;;;;6.42;4.10;;;;;;;5.11;73.58;98749.20;1737045;81;21012;-40
2022/12/29 01:56:57;;;;;;;7.10;3.80;;;;;;;5.18;73.67;98748.46;1758414;80;20991;-39
2022/12/29 01:59:28;;;;;;;8.08;3.70;;;;;;;5.16;73.35;98721.62;1758217;81;20996;-37
2022/12/29 02:01:54;;;;;;;8.48;4.08;;;;;;;5.21;73.84;98747.04;1758292;81;21035;-40
2022/12/29 02:04:22;;;;;;;6.70;3.33;;;;;;;5.26;73.46;98732.52;1758255;81;21509;-38
2022/12/29 02:06:55;;;;;;;7.80;3.22;;;;;;;5.24;73.26;98729.10;1739182;81;21003;-38
2022/12/29 02:09:23;;;;;;;6.10;3.62;;;;;;;5.23;72.89;98730.88;1758254;81;20987;-38
2022/12/29 02:11:49;;;;;;;5.08;3.65;;;;;;;5.24;73.24;98734.32;1758399;80;21479;-40
2022/12/29 02:14:14;;;;;;;5.65;3.75;;;;;;;5.21;72.94;98739.69;1758223;81;21011;-38
2022/12/29 02:17:17;;;;;;;4.55;3.20;;;;;;;5.14;73.13;98748.20;1758331;81;21476;-38
2022/12/29 02:20:16;;;;;;;5.15;3.85;;;;;;;5.19;73.23;98752.31;1758308;81;20991;-39
2022/12/29 02:23:14;;;;;;;5.97;3.72;;;;;;;5.18;73.30;98749.33;1757386;81;20983;-40
2022/12/29 02:26:04;;;;;;;6.20;3.67;;;;;;;5.15;73.01;98730.37;1758229;81;21003;-39
2022/12/29 02:28:41;;;;;;;7.03;3.55;;;;;;;5.13;73.31;98732.16;1758122;81;21043;-39
2022/12/29 02:31:54;;;;;;;5.28;3.17;;;;;;;5.12;73.24;98733.93;1758394;81;20968;-38
2022/12/29 02:34:56;;;;;;;5.00;3.50;;;;;;;5.16;73.50;98733.34;1757977;81;20991;-37
2022/12/29 02:37:59;;;;;;;6.65;3.47;;;;;;;5.06;73.09;98730.29;1758418;81;20979;-39
2022/12/29 02:43:14;;;;;;;7.53;3.80;;;;;;;5.03;73.39;98712.63;1701523;80;21464;-39
2022/12/29 02:46:01;;;;;;;5.92;3.58;;;;;;;5.08;73.49;98697.66;1679969;85;20985;-40
2022/12/29 02:48:47;;;;;;;7.78;4.00;;;;;;;5.06;73.49;98702.05;1672186;85;21023;-40
2022/12/29 02:51:30;;;;;;;9.33;3.65;;;;;;;5.10;73.74;98707.55;1683469;85;21055;-40
2022/12/29 02:56:42;;;;;;;7.70;3.75;;;;;;;5.17;73.61;98706.38;1673155;86;20996;-38
2022/12/29 02:59:08;;;;;;;5.80;3.35;;;;;;;5.12;73.26;98699.20;1673189;84;21012;-38
2022/12/29 03:02:16;;;;;;;6.62;3.30;;;;;;;5.18;73.29;98697.20;1673171;86;21200;-40
2022/12/29 03:04:30;;;;;;;6.80;3.10;;;;;;;5.20;72.93;98691.89;1673713;85;20969;-39
2022/12/29 03:07:19;;;;;;;6.25;3.67;;;;;;;5.17;72.71;98690.74;1674522;85;21427;-40
2022/12/29 03:09:59;;;;;;;7.00;3.80;;;;;;;5.19;72.83;98685.84;1683226;85;21044;-38
2022/12/29 03:16:05;;;;;;;5.70;3.33;;;;;;;5.14;72.85;98673.45;1683330;85;21051;-38
2022/12/29 03:19:01;;;;;;;7.67;3.83;;;;;;;5.04;72.95;98673.48;1683628;85;21489;-40
2022/12/29 03:24:37;;;;;;;6.90;3.90;;;;;;;4.99;73.49;98672.36;1738112;81;20981;-40
2022/12/29 03:27:06;;;;;;;8.08;4.30;;;;;;;5.06;73.44;98669.48;1742315;81;21032;-40
2022/12/29 03:29:38;;;;;;;7.60;3.83;;;;;;;5.08;73.33;98680.72;1742425;82;21060;-38
2022/12/29 03:32:07;;;;;;;9.40;3.25;;;;;;;5.09;73.34;98677.17;1742112;82;21490;-38
2022/12/29 03:34:35;;;;;;;4.85;3.72;;;;;;;5.10;73.06;98682.33;1742429;82;21426;-39
2022/12/29 03:37:06;;;;;;;;;;;;;;;5.14;73.14;98683.05;1745106;82;21009;-39
2022/12/29 03:39:32;;;;;;;8.25;3.67;;;;;;;5.09;72.61;98674.57;1742451;82;20432;-39
2022/12/29 03:42:06;;;;;;;8.03;3.80;;;;;;;5.17;73.08;98681.16;1739244;81;21077;-39
2022/12/29 03:44:40;;;;;;;5.67;3.72;;;;;;;5.17;72.49;98675.10;1707778;83;21478;-38
2022/12/29 03:47:07;;;;;;;5.53;3.72;;;;;;;5.23;72.92;98664.40;1724619;83;20998;-38
2022/12/29 03:49:34;;;;;;;10.78;4.08;;;;;;;5.24;72.70;98667.41;1715056;83;21441;-37
2022/12/29 03:52:00;;;;;;;8.95;3.67;;;;;;;5.22;72.43;98663.16;1714695;84;21039;-40
2022/12/29 03:54:26;;;;;;;7.17;3.75;;;;;;;5.21;72.57;98658.41;1715002;84;21006;-38
2022/12/29 03:56:52;;;;;;;7.12;3.80;;;;;;;5.21;72.74;98655.80;1715009;84;21002;-38
2022/12/29 03:59:18;;;;;;;7.12;4.05;;;;;;;5.22;72.59;98656.20;1714988;82;21041;-39
2022/12/29 04:01:44;;;;;;;5.97;3.42;;;;;;;5.21;72.76;98655.80;1715122;83;21345;-39
2022/12/29 04:04:10;;;;;;;12.20;4.53;;;;;;;5.23;72.56;98648.76;1715087;82;21487;-39
2022/12/29 04:06:35;;;;;;;8.93;3.87;;;;;;;5.15;72.30;98644.36;1715100;83;21864;-39
2022/12/29 04:09:01;;;;;;;7.33;3.80;;;;;;;5.16;72.29;98639.52;1714992;84;20998;-38
2022/12/29 04:11:27;;;;;;;4.70;3.65;;;;;;;5.17;72.63;98625.11;1715006;84;20978;-40
2022/12/29 04:13:53;;;;;;;6.50;3.70;;;;;;;5.21;72.73;98621.08;1714960;84;20974;-40
2022/12/29 04:16:19;;;;;;;15.48;3.55;;;;;;;5.18;72.78;98622.05;1715112;83;21001;-39
2022/12/29 04:18:45;;;;;;;7.37;4.05;;;;;;;5.18;72.77;98625.95;1715106;83;21001;-38
2022/12/29 04:21:11;;;;;;;5.25;3.60;;;;;;;5.20;72.93;98626.73;1715097;82;21498;-40
2022/12/29 04:23:38;;;;;;;7.42;3.50;;;;;;;5.16;72.88;98631.23;1715062;82;20966;-38
2022/12/29 04:26:07;;;;;;;8.88;3.77;;;;;;;5.19;72.58;98628.50;1715198;83;21452;-39
2022/12/29 04:28:33;;;;;;;4.83;3.60;;;;;;;5.25;72.85;98623.47;1714938;82;20986;-40
2022/12/29 04:30:59;;;;;;;8.08;3.30;;;;;;;5.26;72.93;98619.95;1714990;82;21010;-40
2022/12/29 04:33:26;;;;;;;6.42;3.60;;;;;;;5.32;72.74;98619.67;1715002;83;20962;-38
2022/12/29 04:35:53;;;;;;;5.87;3.55;;;;;;;5.29;72.39;98615.89;1715039;83;20982;-38
2022/12/29 04:38:21;;;;;;;8.63;3.40;;;;;;;5.29;72.30;98612.45;1715042;83;20994;-41
2022/12/29 04:40:46;;;;;;;7.75;3.50;;;;;;;5.27;72.31;98602.55;1715174;82;21041;-39
2022/12/29 04:43:13;;;;;;;7.08;4.37;;;;;;;5.28;72.25;98614.68;1714746;83;21487;-38
2022/12/29 04:45:45;;;;;;;6.23;3.80;;;;;;;5.26;72.22;98610.84;1715310;83;20995;-40
2022/12/29 04:48:12;;;;;;;10.45;3.90;;;;;;;5.30;72.26;98603.25;1714993;83;21021;-39
2022/12/29 04:50:39;;;;;;;8.85;3.90;;;;;;;5.32;72.38;98606.64;1715286;83;21009;-40
2022/12/29 04:53:05;;;;;;;5.17;3.83;;;;;;;5.28;72.00;98609.00;1715264;84;21010;-39
2022/12/29 04:55:31;;;;;;;4.25;3.27;;;;;;;5.33;72.04;98604.87;1715142;82;21042;-38
2022/12/29 04:57:56;;;;;;;6.75;3.67;;;;;;;5.25;72.20;98598.70;1715169;82;21013;-40
2022/12/29 05:00:23;;;;;;;6.50;3.75;;;;;;;5.26;72.22;98595.19;1715216;82;21010;-39
2022/12/29 05:02:49;;;;;;;7.35;3.50;;;;;;;5.28;72.44;98603.79;1715138;83;20990;-40
2022/12/29 05:05:15;;;;;;;7.55;3.35;;;;;;;5.32;72.46;98605.80;1715109;83;21006;-41
2022/12/29 05:07:41;;;;;;;6.25;3.62;;;;;;;5.33;72.35;98599.66;1725617;82;20976;-38
2022/12/29 05:10:08;;;;;;;5.75;3.35;;;;;;;5.33;72.24;98601.83;1739681;82;21462;-38
2022/12/29 05:12:36;;;;;;;5.55;3.50;;;;;;;5.32;71.75;98588.39;1739858;82;21005;-40
2022/12/29 05:15:03;;;;;;;6.37;3.70;;;;;;;5.42;72.34;98584.06;1739661;81;21005;-38
2022/12/29 05:18:14;;;;;;;5.33;3.40;;;;;;;5.35;71.82;98584.34;1739812;82;20966;-40
2022/12/29 05:20:40;;;;;;;7.15;4.45;;;;;;;5.42;71.89;98582.75;1739550;81;20981;-39
2022/12/29 05:23:06;;;;;;;8.58;4.10;;;;;;;5.45;72.01;98586.53;1739665;82;21005;-39
2022/12/29 05:25:32;;;;;;;5.67;3.75;;;;;;;5.48;71.64;98578.58;1739736;82;21031;-38
2022/12/29 05:27:58;;;;;;;9.23;3.90;;;;;;;5.46;71.67;98567.37;1739624;81;21075;-39
2022/12/29 05:30:24;;;;;;;6.50;3.42;;;;;;;5.48;71.80;98578.58;1739618;82;20969;-38
2022/12/29 05:32:50;;;;;;;8.75;4.25;;;;;;;5.52;71.85;98587.48;1739602;82;21013;-40
2022/12/29 05:35:16;;;;;;;4.92;3.42;;;;;;;5.53;71.42;98590.92;1739643;82;21567;-37
2022/12/29 05:37:42;;;;;;;5.75;3.35;;;;;;;5.53;71.33;98600.05;1739589;82;21017;-39
2022/12/29 05:40:08;;;;;;;4.75;3.40;;;;;;;5.47;71.04;98602.95;1739664;82;20973;-40
2022/12/29 05:42:34;;;;;;;5.37;3.57;;;;;;;5.51;71.28;98609.28;1739770;81;21668;-38
2022/12/29 05:45:00;;;;;;;6.78;3.50;;;;;;;5.55;71.18;98599.55;1739646;82;21052;-40
2022/12/29 05:47:26;;;;;;;5.33;3.45;;;;;;;5.53;71.58;98611.35;1739733;82;21048;-38
2022/12/29 05:49:52;;;;;;;7.05;3.35;;;;;;;5.53;71.58;98611.35;1739526;82;21012;-38
2022/12/29 05:52:42;;;;;;;8.48;3.30;;;;;;;5.48;71.25;98616.39;1739599;82;21056;-40
2022/12/29 05:55:08;;;;;;;4.75;3.42;;;;;;;5.48;71.41;98601.58;1739606;82;21855;-40
2022/12/29 05:57:34;;;;;;;6.20;3.72;;;;;;;5.45;71.02;98604.32;1739612;81;21534;-40
2022/12/29 06:00:00;;;;;;;5.40;3.45;;;;;;;5.46;71.50;98599.97;1739521;82;21012;-41
2022/12/29 06:02:26;;;;;;;7.35;3.85;;;;;;;5.47;71.34;98606.86;1739593;82;21008;-40
2022/12/29 06:04:52;;;;;;;5.90;3.40;;;;;;;5.49;71.42;98610.24;1739676;82;21439;-42
2022/12/29 06:07:18;;;;;;;8.50;3.77;;;;;;;5.48;71.17;98593.77;1739632;82;21054;-39
2022/12/29 06:09:43;;;;;;;7.15;3.72;;;;;;;5.50;71.37;98615.86;1739594;82;21521;-39
2022/12/29 06:12:09;;;;;;;9.55;3.95;;;;;;;5.48;71.01;98605.49;1739646;82;21060;-39
2022/12/29 06:14:35;;;;;;;7.67;3.85;;;;;;;5.53;71.40;98614.39;1739548;81;21063;-39
2022/12/29 06:17:01;;;;;;;9.95;4.33;;;;;;;5.56;71.05;98609.89;1739845;82;21004;-39
2022/12/29 06:19:27;;;;;;;15.00;4.08;;;;;;;5.57;70.52;98601.63;1739633;82;21064;-41
2022/12/29 06:21:53;;;;;;;8.90;4.22;;;;;;;5.58;70.82;98602.86;1739622;82;21482;-39
2022/12/29 06:24:20;;;;;;;8.48;4.37;;;;;;;5.60;70.60;98595.41;1739563;81;20969;-38
2022/12/29 06:26:45;;;;;;;7.08;4.50;;;;;;;5.60;70.84;98601.93;1739732;81;21041;-40
2022/12/29 06:29:13;;;;;;;11.45;4.95;;;;;;;5.57;70.92;98599.02;1739587;82;21517;-39
2022/12/29 06:31:39;;;;;;;11.78;5.45;;;;;;;5.57;70.79;98588.59;1739688;81;21532;-40
2022/12/29 06:34:05;;;;;;;7.08;4.90;;;;;;;5.53;70.73;98586.58;1739652;81;21048;-38
2022/12/29 06:36:31;;;;;;;8.63;4.90;;;;;;;5.50;70.33;98592.39;1739728;82;21004;-36
2022/12/29 06:38:56;;;;;;;8.53;4.92;;;;;;;5.47;70.61;98586.84;1739616;82;21519;-40
2022/12/29 06:41:22;;;;;;;12.28;5.65;;;;;;;5.49;70.77;98582.86;1739612;82;20969;-38
2022/12/29 06:43:48;;;;;;;11.40;5.08;;;;;;;5.49;70.81;98591.98;1741509;81;21041;-39
2022/12/29 06:46:14;;;;;;;10.58;4.87;;;;;;;5.46;70.78;98593.45;1742468;81;21040;-37
2022/12/29 06:48:41;;;;;;;8.00;4.80;;;;;;;5.44;70.93;98592.22;1742451;81;21063;-40
2022/12/29 06:51:08;;;;;;;12.53;4.70;;;;;;;5.44;70.95;98584.83;1742574;81;21502;-39
2022/12/29 06:53:34;;;;;;;8.43;5.53;;;;;;;5.44;70.89;98590.05;1742583;82;21000;-39
2022/12/29 06:56:00;;;;;;;10.43;4.80;;;;;;;5.44;70.69;98583.09;1742442;82;21012;-38
2022/12/29 06:58:26;;;;;;;8.65;4.70;;;;;;;5.50;71.00;98587.17;1742403;81;21049;-39
2022/12/29 07:00:52;;;;;;;12.00;5.28;;;;;;;5.54;71.09;98583.03;1742450;82;20997;-39
2022/12/29 07:03:17;;;;;;;9.58;4.58;;;;;;;5.54;70.65;98584.81;1742435;81;21060;-39
2022/12/29 07:05:44;;;;;;;9.90;4.45;;;;;;;5.59;70.74;98585.45;1742528;82;21006;-38
2022/12/29 07:08:09;;;;;;;8.53;3.80;;;;;;;5.59;70.17;98594.58;1742427;81;21446;-39
2022/12/29 07:10:36;;;;;;;12.10;4.65;;;;;;;5.58;70.07;98586.34;1742379;81;21009;-38
2022/12/29 07:13:02;;;;;;;7.58;4.37;;;;;;;5.57;69.69;98588.59;1741811;81;20961;-37
2022/12/29 07:15:28;;;;;;;9.08;4.67;;;;;;;5.62;70.08;98590.53;1742466;82;20989;-39
2022/12/29 07:17:54;;;;;;;13.95;4.97;;;;;;;5.60;69.82;98597.55;1742441;82;21005;-39
2022/12/29 07:20:20;;;;;;;10.93;4.47;;;;;;;5.61;70.04;98594.04;1742470;82;20961;-38
2022/12/29 07:22:47;;;;;;;8.13;4.20;;;;;;;5.61;69.82;98604.47;1742449;82;20996;-39
2022/12/29 07:25:13;;;;;;;8.10;4.70;;;;;;;5.60;69.16;98604.54;1742626;82;20965;-39
2022/12/29 07:27:39;;;;;;;13.35;5.67;;;;;;;5.58;68.92;98592.87;1742371;82;21016;-39
2022/12/29 07:30:06;;;;;;;7.45;4.55;;;;;;;5.64;69.40;98595.21;1742355;81;21442;-39
2022/12/29 07:32:33;;;;;;;8.63;4.37;;;;;;;5.67;69.03;98588.53;1742569;82;21032;-38
2022/12/29 07:34:59;;;;;;;7.83;4.42;;;;;;;5.67;69.01;98584.61;1742620;82;21005;-40
2022/12/29 07:37:25;;;;;;;7.75;4.20;;;;;;;5.70;68.88;98590.16;1742384;82;21040;-38
2022/12/29 07:39:51;;;;;;;6.87;4.30;;;;;;;5.68;69.11;98604.58;1742391;82;20996;-37
2022/12/29 07:42:17;;;;;;;9.60;4.17;;;;;;;5.70;69.22;98584.95;1742397;82;21040;-38
2022/12/29 07:44:44;;;;;;;7.95;4.67;;;;;;;5.75;69.49;98588.20;1739580;82;21643;-38
2022/12/29 07:47:10;;;;;;;9.03;5.33;;;;;;;5.75;69.26;98582.98;1739786;81;21470;-38
2022/12/29 07:49:36;;;;;;;7.58;4.60;;;;;;;5.71;68.75;98589.23;1739570;82;21690;-37
2022/12/29 07:52:02;;;;;;;12.53;4.92;;;;;;;5.71;69.12;98588.80;1739485;82;21016;-38
2022/12/29 07:54:28;;;;;;;7.45;4.40;;;;;;;5.73;69.28;98580.87;1739540;81;20988;-41
2022/12/29 07:56:54;;;;;;;13.43;5.15;;;;;;;5.77;69.29;98590.27;1739436;81;21052;-40
2022/12/29 07:59:20;;;;;;;12.65;5.10;;;;;;;5.80;69.36;98579.66;1739555;82;20997;-38
2022/12/29 08:01:46;;;;;;;9.00;5.28;;;;;;;5.87;69.19;98581.53;1739525;82;21509;-39
2022/12/29 08:04:12;;;;;;;10.95;5.45;;;;;;;5.94;69.34;98588.16;1739646;82;21037;-40
2022/12/29 08:06:37;;;;;;;10.10;5.55;;;;;;;5.93;69.03;98587.75;1739528;81;21478;-37
2022/12/29 08:09:04;;;;;;;11.00;5.08;;;;;;;6.00;69.29;98596.18;1739624;82;21000;-40
2022/12/29 08:11:29;;;;;;;9.95;5.30;;;;;;;6.03;68.98;98587.75;1739474;81;21486;-39
2022/12/29 08:13:55;;;;;;;8.23;5.03;;;;;;;6.06;69.22;98584.16;1739530;82;20977;-39
2022/12/29 08:16:21;;;;;;;13.05;5.08;;;;;;;6.03;68.84;98587.75;1739516;81;20996;-37
2022/12/29 08:18:47;;;;;;;12.15;5.58;;;;;;;6.05;68.80;98595.04;1739641;81;21515;-38
2022/12/29 08:21:13;;;;;;;7.97;5.28;;;;;;;6.07;69.03;98590.59;1739483;82;21005;-37
2022/12/29 08:23:38;;;;;;;10.63;5.17;;;;;;;6.12;69.19;98589.08;1739510;81;20997;-39
2022/12/29 08:26:05;;;;;;;11.45;5.92;;;;;;;6.08;68.54;98587.07;1739532;81;21008;-39
2022/12/29 08:28:32;;;;;;;8.30;4.92;;;;;;;6.09;68.72;98588.77;1739752;81;21005;-38
2022/12/29 08:31:00;;;;;;;8.68;4.70;;;;;;;6.09;68.84;98590.52;1739785;81;20997;-38
2022/12/29 08:33:27;;;;;;;11.83;4.85;;;;;;;6.10;68.76;98587.84;1739672;82;21060;-38
2022/12/29 08:35:52;;;;;;;11.00;4.75;;;;;;;6.11;68.57;98595.20;1739697;82;21576;-39
2022/12/29 08:38:18;;;;;;;8.03;4.65;;;;;;;6.14;68.87;98584.15;1739730;81;20973;-37
2022/12/29 08:40:44;;;;;;;8.03;4.78;;;;;;;6.11;68.70;98588.23;1739693;82;21557;-39
2022/12/29 08:43:10;;;;;;;10.25;4.42;;;;;;;6.15;68.82;98594.16;1739634;80;21080;-37
2022/12/29 08:45:36;;;;;;;8.13;5.08;;;;;;;6.15;68.82;98594.16;1739677;82;21020;-37
2022/12/29 08:48:02;;;;;;;10.53;4.20;;;;;;;6.14;68.71;98610.26;1739636;82;20981;-39
2022/12/29 08:50:28;;;;;;;17.23;5.50;;;;;;;6.19;68.79;98598.77;1739637;82;20997;-38
2022/12/29 08:52:54;;;;;;;17.48;10.13;;;;;;;6.22;68.91;98599.91;1739666;81;21461;-41
2022/12/29 08:55:19;;;;;;;9.08;6.00;;;;;;;6.24;68.79;98602.84;1739660;82;21028;-39
2022/12/29 08:57:45;;;;;;;11.65;6.00;;;;;;;6.25;68.99;98604.98;1739617;82;20997;-40
2022/12/29 09:00:12;;;;;;;9.98;4.95;;;;;;;6.28;68.98;98604.84;1739631;82;21001;-38
2022/12/29 09:02:37;;;;;;;9.98;4.80;;;;;;;6.29;68.87;98612.61;1739892;82;20997;-38
2022/12/29 09:05:04;;;;;;;9.38;5.30;;;;;;;6.31;68.50;98611.20;1739683;82;21585;-38
2022/12/29 09:07:30;;;;;;;13.22;5.42;;;;;;;6.38;69.30;98604.77;1739627;81;21056;-39
2022/12/29 09:09:55;;;;;;;8.95;5.28;;;;;;;6.39;69.08;98588.19;1739656;81;21012;-41
2022/12/29 09:12:21;;;;;;;12.70;7.35;;;;;;;6.42;69.15;98584.13;1739658;81;21048;-41
2022/12/29 09:14:47;;;;;;;22.42;6.67;;;;;;;6.44;69.34;98584.89;1739698;81;21489;-39
2022/12/29 09:19:57;;;;;;;14.15;6.35;;;;;;;6.54;69.01;98575.66;1738524;82;21061;-39
2022/12/29 09:22:23;;;;;;;9.68;5.72;;;;;;;6.58;68.25;98581.57;1738630;82;21048;-39
2022/12/29 09:24:49;;;;;;;13.75;5.85;;;;;;;6.65;67.80;98580.81;1739632;82;21001;-38
2022/12/29 09:27:15;;;;;;;12.03;6.20;;;;;;;6.71;68.05;98577.88;1739611;82;20989;-40
2022/12/29 09:29:40;;;;;;;10.58;6.15;;;;;;;6.76;68.01;98590.25;1739599;82;20989;-39
2022/12/29 09:32:07;;;;;;;11.45;6.05;;;;;;;6.76;67.40;98570.65;1739729;82;20977;-40
2022/12/29 09:34:33;;;;;;;21.45;6.87;;;;;;;6.77;67.43;98586.73;1739589;82;20966;-38
2022/12/29 09:36:58;;;;;;;12.18;6.03;;;;;;;6.79;67.28;98577.03;1739560;81;21498;-38
2022/12/29 09:39:24;;;;;;;10.70;6.22;;;;;;;6.82;67.22;98570.36;1739716;81;20973;-40
2022/12/29 09:42:02;;;;;;;12.80;5.58;;;;;;;6.86;67.69;98565.81;1739706;82;21510;-40
2022/12/29 09:45:05;;;;;;;11.78;5.55;;;;;;;6.88;67.42;98573.95;1742864;82;21471;-41
2022/12/29 09:47:31;;;;;;;14.18;5.42;;;;;;;6.92;67.58;98580.70;1744849;81;21025;-38
2022/12/29 09:50:35;;;;;;;13.05;6.40;;;;;;;6.93;67.26;98567.19;1744828;82;20981;-40
2022/12/29 09:53:15;;;;;;;9.15;5.33;;;;;;;7.03;67.62;98559.70;1744860;82;20985;-39
2022/12/29 09:55:46;;;;;;;14.68;5.47;;;;;;;7.09;67.03;98564.16;1744230;81;21052;-41
2022/12/29 09:58:18;;;;;;;10.55;5.83;;;;;;;7.11;67.23;98567.97;1744291;81;21083;-40
2022/12/29 10:00:52;;;;;;;15.40;5.62;;;;;;;7.17;66.93;98563.73;1743603;82;21009;-39
2022/12/29 10:03:22;;;;;;;12.43;5.65;;;;;;;7.19;66.62;98573.66;1744554;81;20977;-37
2022/12/29 10:06:06;;;;;;;12.53;5.55;;;;;;;7.20;66.68;98563.55;1744132;82;21040;-39
2022/12/29 10:08:43;;;;;;;12.23;5.00;;;;;;;7.24;66.70;98570.77;1742429;82;21509;-38
2022/12/29 10:11:32;;;;;;;;;;;;;;;7.27;66.60;98561.00;1746833;82;21046;-38
2022/12/29 10:14:15;;;;;;;11.03;5.20;;;;;;;7.22;66.04;98552.58;1744133;82;20447;-38
2022/12/29 10:17:13;;;;;;;10.28;5.33;;;;;;;7.26;66.39;98553.27;1723884;81;21040;-40
2022/12/29 10:20:01;;;;;;;9.28;4.85;;;;;;;7.24;66.30;98552.03;1744461;82;20988;-40
2022/12/29 10:23:02;;;;;;;12.20;5.70;;;;;;;7.35;66.33;98541.43;1744334;82;21109;-39
2022/12/29 10:25:33;;;;;;;8.98;4.83;;;;;;;7.38;66.27;98543.89;1744391;82;21544;-40
2022/12/29 10:28:04;;;;;;;10.48;5.58;;;;;;;7.39;66.46;98556.89;1744148;82;21013;-41
2022/12/29 10:30:32;;;;;;;7.55;5.00;;;;;;;7.16;65.64;98545.04;1744412;82;21137;-39
2022/12/29 10:33:07;;;;;;;9.98;5.45;;;;;;;7.33;66.35;98547.22;1744067;82;21040;-39
2022/12/29 10:35:38;;;;;;;9.70;4.92;;;;;;;7.40;66.46;98549.88;1744330;81;21520;-41
2022/12/29 10:38:31;;;;;;;12.03;4.92;;;;;;;7.44;66.05;98551.39;1744574;81;21481;-38
2022/12/29 10:41:23;;;;;;;12.53;5.28;;;;;;;7.42;65.94;98557.18;1746944;82;21514;-39
2022/12/29 10:43:54;;;;;;;10.25;4.55;;;;;;;7.41;66.15;98555.50;1747839;82;21531;-39
2022/12/29 10:46:28;;;;;;;11.35;4.72;;;;;;;7.42;65.89;98550.64;1750173;80;21508;-39
2022/12/29 10:48:54;;;;;;;10.63;5.65;;;;;;;7.41;65.80;98539.81;1745955;81;21570;-40
2022/12/29 10:51:31;;;;;;;9.05;5.08;;;;;;;7.39;65.85;98539.89;1750719;81;20969;-39
2022/12/29 10:54:13;;;;;;;;;;;;;;;7.41;66.14;98548.97;1745288;82;21011;-41
2022/12/29 10:56:44;;;;;;;9.53;5.03;;;;;;;7.41;65.57;98543.27;1728113;82;20098;-37
2022/12/29 10:59:28;;;;;;;7.72;5.20;;;;;;;7.49;65.99;98545.02;1742208;81;20996;-40
2022/12/29 11:02:14;;;;;;;10.00;5.35;;;;;;;7.55;66.13;98539.91;1745157;82;21006;-42
2022/12/29 11:04:55;;;;;;;10.78;5.65;;;;;;;7.59;65.70;98532.26;1729758;82;20920;-42
2022/12/29 11:07:21;;;;;;;12.68;5.35;;;;;;;7.60;65.51;98538.33;1740555;82;21000;-38
2022/12/29 11:09:48;;;;;;;11.35;5.22;;;;;;;7.59;65.70;98534.88;1744241;82;20995;-39
2022/12/29 11:12:27;;;;;;;10.03;5.12;;;;;;;7.64;65.72;98540.70;1745154;82;20983;-40
2022/12/29 11:15:15;;;;;;;10.20;5.35;;;;;;;7.53;65.31;98530.44;1745802;81;21147;-40
2022/12/29 11:17:56;;;;;;;6.42;4.25;;;;;;;7.55;65.81;98522.90;1742579;82;20966;-39
2022/12/29 11:20:37;;;;;;;10.23;5.50;;;;;;;7.61;65.85;98527.78;1729332;82;21731;-40
2022/12/29 11:23:19;;;;;;;8.13;5.25;;;;;;;7.63;65.61;98525.08;1743723;82;21470;-38
2022/12/29 11:25:45;;;;;;;7.20;4.85;;;;;;;7.66;65.74;98517.91;1743074;82;21546;-40
2022/12/29 11:28:16;;;;;;;9.38;4.40;;;;;;;7.76;65.74;98517.39;1729916;81;20972;-37
2022/12/29 11:30:43;;;;;;;15.30;5.37;;;;;;;7.76;65.26;98512.16;1748396;81;21000;-37
2022/12/29 11:33:09;;;;;;;10.75;5.90;;;;;;;7.86;65.63;98511.55;1735691;82;21091;-37
2022/12/29 11:35:40;;;;;;;12.53;5.10;;;;;;;7.95;65.70;98513.25;1737723;81;20969;-39
2022/12/29 11:38:19;;;;;;;9.80;5.60;;;;;;;8.00;65.62;98508.13;1747800;82;21087;-39
2022/12/29 11:40:44;;;;;;;11.05;5.22;;;;;;;8.06;65.59;98509.11;1753684;81;21002;-40
2022/12/29 11:43:29;;;;;;;10.70;4.75;;;;;;;8.07;65.63;98512.08;1742377;82;20965;-38
2022/12/29 11:45:56;;;;;;;11.00;5.03;;;;;;;8.09;65.62;98504.14;1745422;82;21026;-41
2022/12/29 11:48:23;;;;;;;6.60;4.47;;;;;;;8.13;65.79;98511.36;1730706;82;20993;-39
2022/12/29 11:50:53;;;;;;;7.92;5.33;;;;;;;8.13;65.62;98508.73;1743835;82;20975;-39
2022/12/29 11:53:30;;;;;;;8.98;4.87;;;;;;;8.18;65.72;98507.54;1747429;82;20969;-39
2022/12/29 11:56:00;;;;;;;11.68;4.78;;;;;;;8.18;65.81;98510.62;1747644;82;20959;-38
2022/12/29 11:58:36;;;;;;;9.70;4.87;;;;;;;8.17;65.62;98511.58;1749391;82;21012;-38
2022/12/29 12:01:10;;;;;;;14.13;4.90;;;;;;;8.21;65.90;98508.68;1753954;82;21050;-41
2022/12/29 12:03:42;;;;;;;12.73;5.58;;;;;;;8.23;66.15;98499.42;1735796;82;21011;-38
2022/12/29 12:06:12;;;;;;;10.23;5.20;;;;;;;8.24;66.08;98503.72;1742326;82;20995;-39
2022/12/29 12:08:52;;;;;;;15.32;5.47;;;;;;;8.26;66.18;98504.50;1728051;82;21451;-39
2022/12/29 12:11:35;;;;;;;12.43;5.20;;;;;;;8.23;65.97;98504.19;1741097;82;20986;-39
2022/12/29 12:14:14;;;;;;;9.48;5.37;;;;;;;8.22;65.58;98495.98;1720568;82;21851;-39
2022/12/29 12:16:48;;;;;;;7.50;4.65;;;;;;;8.21;66.08;98502.61;1728219;82;20967;-39
2022/12/29 12:19:40;;;;;;;9.78;5.22;;;;;;;8.20;65.97;98495.67;1754634;80;21010;-39
2022/12/29 12:22:31;;;;;;;8.40;4.53;;;;;;;8.20;66.18;98499.59;1758379;80;21655;-37
2022/12/29 12:25:06;;;;;;;12.40;4.95;;;;;;;8.24;66.31;98488.00;1751770;82;20994;-38
2022/12/29 12:27:40;;;;;;;10.90;5.45;;;;;;;8.28;66.42;98489.53;1744999;82;21026;-41
2022/12/29 12:30:16;;;;;;;15.65;6.10;;;;;;;8.26;66.20;98499.26;1746337;82;20976;-40
2022/12/29 12:33:18;;;;;;;12.53;6.00;;;;;;;8.24;65.86;98496.72;1730469;82;21428;-39
2022/12/29 12:35:55;;;;;;;10.15;5.78;;;;;;;8.28;66.08;98497.39;1736526;82;20973;-39
2022/12/29 12:38:38;;;;;;;9.68;5.35;;;;;;;8.32;66.22;98498.89;1748963;82;21487;-39
2022/12/29 12:41:12;;;;;;;11.90;5.58;;;;;;;8.34;65.94;98489.16;1735907;80;20971;-41